sensor_id;sensor_type;location;lat;lon;timestamp;temperature;humidity
19220;DHT22;9744;49.364;7.484;2023-04-03T00:00:13;2.90;99.90
19220;DHT22;9744;49.364;7.484;2023-04-03T00:02:40;2.90;99.90
19220;DHT22;9744;49.364;7.484;2023-04-03T00:05:07;2.90;99.90
19220;DHT22;9744;49.364;7.484;2023-04-03T00:07:36;3.00;99.90
19220;DHT22;9744;49.364;7.484;2023-04-03T00:10:04;2.90;99.90
19220;DHT22;9744;49.364;7.484;2023-04-03T00:12:31;2.80;99.90
19220;DHT22;9744;49.364;7.484;2023-04-03T00:14:58;2.80;99.90
19220;DHT22;9744;49.364;7.484;2023-04-03T00:17:26;2.80;99.90
19220;DHT22;9744;49.364;7.484;2023-04-03T00:19:53;2.90;99.90
19220;DHT22;9744;49.364;7.484;2023-04-03T00:22:20;2.90;99.90
19220;DHT22;9744;49.364;7.484;2023-04-03T00:24:48;3.00;99.90
19220;DHT22;9744;49.364;7.484;2023-04-03T00:27:15;3.20;99.90
19220;DHT22;9744;49.364;7.484;2023-04-03T00:29:43;3.10;99.90
19220;DHT22;9744;49.364;7.484;2023-04-03T00:32:10;3.50;99.90
19220;DHT22;9744;49.364;7.484;2023-04-03T00:34:37;3.10;99.90
19220;DHT22;9744;49.364;7.484;2023-04-03T00:37:04;3.10;99.90
19220;DHT22;9744;49.364;7.484;2023-04-03T00:39:31;3.20;99.90
19220;DHT22;9744;49.364;7.484;2023-04-03T00:42:00;2.90;99.90
19220;DHT22;9744;49.364;7.484;2023-04-03T00:47:28;2.70;99.90
19220;DHT22;9744;49.364;7.484;2023-04-03T00:49:57;2.50;99.90
19220;DHT22;9744;49.364;7.484;2023-04-03T00:52:28;2.40;99.90
19220;DHT22;9744;49.364;7.484;2023-04-03T00:54:59;2.40;99.90
19220;DHT22;9744;49.364;7.484;2023-04-03T00:57:30;2.30;99.90
19220;DHT22;9744;49.364;7.484;2023-04-03T01:00:00;2.30;99.90
19220;DHT22;9744;49.364;7.484;2023-04-03T01:02:32;2.30;99.90
19220;DHT22;9744;49.364;7.484;2023-04-03T01:05:27;2.40;99.90
19220;DHT22;9744;49.364;7.484;2023-04-03T01:07:54;2.40;99.90
19220;DHT22;9744;49.364;7.484;2023-04-03T01:10:22;2.50;99.90
19220;DHT22;9744;49.364;7.484;2023-04-03T01:12:52;2.60;99.90
19220;DHT22;9744;49.364;7.484;2023-04-03T01:15:21;2.70;99.90
19220;DHT22;9744;49.364;7.484;2023-04-03T01:17:50;2.70;99.90
19220;DHT22;9744;49.364;7.484;2023-04-03T01:23:49;2.80;99.90
19220;DHT22;9744;49.364;7.484;2023-04-03T01:26:20;2.90;99.90
19220;DHT22;9744;49.364;7.484;2023-04-03T01:28:50;2.80;99.90
19220;DHT22;9744;49.364;7.484;2023-04-03T01:31:22;2.70;99.90
19220;DHT22;9744;49.364;7.484;2023-04-03T01:33:52;2.70;99.90
19220;DHT22;9744;49.364;7.484;2023-04-03T01:36:21;2.80;99.90
19220;DHT22;9744;49.364;7.484;2023-04-03T01:38:50;2.60;99.90
19220;DHT22;9744;49.364;7.484;2023-04-03T01:41:18;2.90;99.90
19220;DHT22;9744;49.364;7.484;2023-04-03T01:43:46;2.50;99.90
19220;DHT22;9744;49.364;7.484;2023-04-03T01:46:14;2.60;99.90
19220;DHT22;9744;49.364;7.484;2023-04-03T01:48:42;2.60;99.90
19220;DHT22;9744;49.364;7.484;2023-04-03T01:51:18;2.50;99.90
19220;DHT22;9744;49.364;7.484;2023-04-03T01:53:45;2.50;99.90
19220;DHT22;9744;49.364;7.484;2023-04-03T01:56:13;2.50;99.90
19220;DHT22;9744;49.364;7.484;2023-04-03T01:58:40;2.50;99.90
19220;DHT22;9744;49.364;7.484;2023-04-03T02:01:07;2.60;99.90
19220;DHT22;9744;49.364;7.484;2023-04-03T02:03:34;2.60;99.90
19220;DHT22;9744;49.364;7.484;2023-04-03T02:06:01;2.50;99.90
19220;DHT22;9744;49.364;7.484;2023-04-03T02:08:30;2.50;99.90
19220;DHT22;9744;49.364;7.484;2023-04-03T02:10:57;2.40;99.90
19220;DHT22;9744;49.364;7.484;2023-04-03T02:13:24;2.40;99.90
19220;DHT22;9744;49.364;7.484;2023-04-03T02:15:51;2.40;99.90
19220;DHT22;9744;49.364;7.484;2023-04-03T02:18:19;2.40;99.90
19220;DHT22;9744;49.364;7.484;2023-04-03T02:20:47;2.40;99.90
19220;DHT22;9744;49.364;7.484;2023-04-03T02:23:14;2.40;99.90
19220;DHT22;9744;49.364;7.484;2023-04-03T02:25:42;2.40;99.90
19220;DHT22;9744;49.364;7.484;2023-04-03T02:28:09;2.30;99.90
19220;DHT22;9744;49.364;7.484;2023-04-03T02:30:36;2.10;99.90
19220;DHT22;9744;49.364;7.484;2023-04-03T02:33:04;2.70;99.90
19220;DHT22;9744;49.364;7.484;2023-04-03T02:35:31;2.10;99.90
19220;DHT22;9744;49.364;7.484;2023-04-03T02:37:59;2.10;99.90
19220;DHT22;9744;49.364;7.484;2023-04-03T02:40:26;2.20;99.90
19220;DHT22;9744;49.364;7.484;2023-04-03T02:42:55;2.10;99.90
19220;DHT22;9744;49.364;7.484;2023-04-03T02:45:24;2.10;99.90
19220;DHT22;9744;49.364;7.484;2023-04-03T02:47:52;2.00;99.90
19220;DHT22;9744;49.364;7.484;2023-04-03T02:50:19;2.10;99.90
19220;DHT22;9744;49.364;7.484;2023-04-03T02:52:46;2.00;99.90
19220;DHT22;9744;49.364;7.484;2023-04-03T02:55:14;1.90;99.90
19220;DHT22;9744;49.364;7.484;2023-04-03T02:57:43;1.70;99.90
19220;DHT22;9744;49.364;7.484;2023-04-03T03:00:13;1.70;99.90
19220;DHT22;9744;49.364;7.484;2023-04-03T03:02:40;1.70;99.90
19220;DHT22;9744;49.364;7.484;2023-04-03T03:05:08;2.20;99.90
19220;DHT22;9744;49.364;7.484;2023-04-03T03:07:35;1.80;99.90
19220;DHT22;9744;49.364;7.484;2023-04-03T03:10:03;1.80;99.90
19220;DHT22;9744;49.364;7.484;2023-04-03T03:12:30;1.70;99.90
19220;DHT22;9744;49.364;7.484;2023-04-03T03:14:57;1.70;99.90
19220;DHT22;9744;49.364;7.484;2023-04-03T03:17:26;1.70;99.90
19220;DHT22;9744;49.364;7.484;2023-04-03T03:19:53;2.50;99.90
19220;DHT22;9744;49.364;7.484;2023-04-03T03:22:20;1.60;99.90
19220;DHT22;9744;49.364;7.484;2023-04-03T03:28:07;1.60;99.90
19220;DHT22;9744;49.364;7.484;2023-04-03T03:30:35;1.60;99.90
19220;DHT22;9744;49.364;7.484;2023-04-03T03:33:03;1.70;99.90
19220;DHT22;9744;49.364;7.484;2023-04-03T03:35:31;1.60;99.90
19220;DHT22;9744;49.364;7.484;2023-04-03T03:37:58;1.50;99.90
19220;DHT22;9744;49.364;7.484;2023-04-03T03:40:26;1.40;99.90
19220;DHT22;9744;49.364;7.484;2023-04-03T03:42:53;1.40;99.90
19220;DHT22;9744;49.364;7.484;2023-04-03T03:45:20;1.40;99.90
19220;DHT22;9744;49.364;7.484;2023-04-03T03:47:48;1.40;99.90
19220;DHT22;9744;49.364;7.484;2023-04-03T03:50:17;1.20;99.90
19220;DHT22;9744;49.364;7.484;2023-04-03T03:52:44;1.30;99.90
19220;DHT22;9744;49.364;7.484;2023-04-03T03:55:12;1.20;99.90
19220;DHT22;9744;49.364;7.484;2023-04-03T03:57:40;1.30;99.90
19220;DHT22;9744;49.364;7.484;2023-04-03T04:00:09;1.30;99.90
19220;DHT22;9744;49.364;7.484;2023-04-03T04:02:44;1.30;99.90
19220;DHT22;9744;49.364;7.484;2023-04-03T04:05:17;1.30;99.90
19220;DHT22;9744;49.364;7.484;2023-04-03T04:07:44;1.30;99.90
19220;DHT22;9744;49.364;7.484;2023-04-03T04:10:12;1.30;99.90
19220;DHT22;9744;49.364;7.484;2023-04-03T04:12:40;1.30;99.90
19220;DHT22;9744;49.364;7.484;2023-04-03T04:15:08;1.30;99.90
19220;DHT22;9744;49.364;7.484;2023-04-03T04:17:36;1.20;99.90
19220;DHT22;9744;49.364;7.484;2023-04-03T04:20:06;1.00;99.90
19220;DHT22;9744;49.364;7.484;2023-04-03T04:22:36;1.00;99.90
19220;DHT22;9744;49.364;7.484;2023-04-03T04:25:04;1.00;99.90
19220;DHT22;9744;49.364;7.484;2023-04-03T04:27:31;1.10;99.90
19220;DHT22;9744;49.364;7.484;2023-04-03T04:29:59;1.20;99.90
19220;DHT22;9744;49.364;7.484;2023-04-03T04:32:27;1.30;99.90
19220;DHT22;9744;49.364;7.484;2023-04-03T04:34:54;1.40;99.90
19220;DHT22;9744;49.364;7.484;2023-04-03T04:37:22;1.40;99.90
19220;DHT22;9744;49.364;7.484;2023-04-03T04:39:52;1.50;99.90
19220;DHT22;9744;49.364;7.484;2023-04-03T04:42:20;1.50;99.90
19220;DHT22;9744;49.364;7.484;2023-04-03T04:44:48;1.40;99.90
19220;DHT22;9744;49.364;7.484;2023-04-03T04:47:16;1.50;99.90
19220;DHT22;9744;49.364;7.484;2023-04-03T04:49:43;1.30;99.90
19220;DHT22;9744;49.364;7.484;2023-04-03T04:52:13;1.20;99.90
19220;DHT22;9744;49.364;7.484;2023-04-03T04:54:41;1.10;99.90
19220;DHT22;9744;49.364;7.484;2023-04-03T04:57:10;1.10;99.90
19220;DHT22;9744;49.364;7.484;2023-04-03T04:59:38;1.10;99.90
19220;DHT22;9744;49.364;7.484;2023-04-03T05:02:06;1.20;99.90
19220;DHT22;9744;49.364;7.484;2023-04-03T05:04:34;1.20;99.90
19220;DHT22;9744;49.364;7.484;2023-04-03T05:07:08;1.20;99.90
19220;DHT22;9744;49.364;7.484;2023-04-03T05:10:07;1.20;99.90
19220;DHT22;9744;49.364;7.484;2023-04-03T05:12:36;1.20;99.90
19220;DHT22;9744;49.364;7.484;2023-04-03T05:15:05;1.30;99.90
19220;DHT22;9744;49.364;7.484;2023-04-03T05:17:33;1.20;99.90
19220;DHT22;9744;49.364;7.484;2023-04-03T05:20:02;2.60;99.90
19220;DHT22;9744;49.364;7.484;2023-04-03T05:22:29;1.20;99.90
19220;DHT22;9744;49.364;7.484;2023-04-03T05:25:03;1.30;99.90
19220;DHT22;9744;49.364;7.484;2023-04-03T05:27:30;1.20;99.90
19220;DHT22;9744;49.364;7.484;2023-04-03T05:30:00;1.30;99.90
19220;DHT22;9744;49.364;7.484;2023-04-03T05:32:27;1.30;99.90
19220;DHT22;9744;49.364;7.484;2023-04-03T05:35:13;1.30;99.90
19220;DHT22;9744;49.364;7.484;2023-04-03T05:37:42;1.30;99.90
19220;DHT22;9744;49.364;7.484;2023-04-03T05:40:10;2.60;99.90
19220;DHT22;9744;49.364;7.484;2023-04-03T05:42:41;1.30;99.90
19220;DHT22;9744;49.364;7.484;2023-04-03T05:45:10;1.50;99.90
19220;DHT22;9744;49.364;7.484;2023-04-03T05:47:38;1.70;99.90
19220;DHT22;9744;49.364;7.484;2023-04-03T05:50:07;1.50;99.90
19220;DHT22;9744;49.364;7.484;2023-04-03T05:52:36;1.50;99.90
19220;DHT22;9744;49.364;7.484;2023-04-03T05:55:05;1.60;99.90
19220;DHT22;9744;49.364;7.484;2023-04-03T05:57:34;1.70;99.90
19220;DHT22;9744;49.364;7.484;2023-04-03T06:00:03;1.70;99.90
19220;DHT22;9744;49.364;7.484;2023-04-03T06:02:42;1.80;99.90
19220;DHT22;9744;49.364;7.484;2023-04-03T06:05:16;1.90;99.90
19220;DHT22;9744;49.364;7.484;2023-04-03T06:07:43;1.90;99.90
19220;DHT22;9744;49.364;7.484;2023-04-03T06:10:14;1.80;99.90
19220;DHT22;9744;49.364;7.484;2023-04-03T06:12:41;1.60;99.90
19220;DHT22;9744;49.364;7.484;2023-04-03T06:15:11;1.70;99.90
19220;DHT22;9744;49.364;7.484;2023-04-03T06:17:41;1.80;99.90
19220;DHT22;9744;49.364;7.484;2023-04-03T06:20:09;1.90;99.90
19220;DHT22;9744;49.364;7.484;2023-04-03T06:22:37;1.90;99.90
19220;DHT22;9744;49.364;7.484;2023-04-03T06:25:05;1.90;99.90
19220;DHT22;9744;49.364;7.484;2023-04-03T06:27:33;1.90;99.90
19220;DHT22;9744;49.364;7.484;2023-04-03T06:30:00;2.10;99.90
19220;DHT22;9744;49.364;7.484;2023-04-03T06:32:27;2.30;99.90
19220;DHT22;9744;49.364;7.484;2023-04-03T06:34:56;2.40;99.90
19220;DHT22;9744;49.364;7.484;2023-04-03T06:37:24;2.50;99.90
19220;DHT22;9744;49.364;7.484;2023-04-03T06:39:54;2.50;99.90
19220;DHT22;9744;49.364;7.484;2023-04-03T06:42:21;2.50;99.90
19220;DHT22;9744;49.364;7.484;2023-04-03T06:44:58;2.50;99.90
19220;DHT22;9744;49.364;7.484;2023-04-03T06:47:26;2.80;99.90
19220;DHT22;9744;49.364;7.484;2023-04-03T06:49:53;3.00;99.90
19220;DHT22;9744;49.364;7.484;2023-04-03T06:52:21;3.10;99.90
19220;DHT22;9744;49.364;7.484;2023-04-03T06:54:49;3.30;99.90
19220;DHT22;9744;49.364;7.484;2023-04-03T06:57:17;3.20;99.90
19220;DHT22;9744;49.364;7.484;2023-04-03T06:59:45;3.80;99.90
19220;DHT22;9744;49.364;7.484;2023-04-03T07:02:12;3.40;99.90
19220;DHT22;9744;49.364;7.484;2023-04-03T07:04:39;3.20;99.90
19220;DHT22;9744;49.364;7.484;2023-04-03T07:07:06;3.40;99.90
19220;DHT22;9744;49.364;7.484;2023-04-03T07:09:35;3.60;99.90
19220;DHT22;9744;49.364;7.484;2023-04-03T07:12:02;3.70;99.90
19220;DHT22;9744;49.364;7.484;2023-04-03T07:14:30;3.70;99.90
19220;DHT22;9744;49.364;7.484;2023-04-03T07:16:57;3.70;99.90
19220;DHT22;9744;49.364;7.484;2023-04-03T07:19:24;3.80;99.90
19220;DHT22;9744;49.364;7.484;2023-04-03T07:21:53;4.20;99.90
19220;DHT22;9744;49.364;7.484;2023-04-03T07:24:21;4.30;99.90
19220;DHT22;9744;49.364;7.484;2023-04-03T07:26:50;4.40;99.90
19220;DHT22;9744;49.364;7.484;2023-04-03T07:33:37;4.60;99.90
19220;DHT22;9744;49.364;7.484;2023-04-03T07:36:06;4.80;99.90
19220;DHT22;9744;49.364;7.484;2023-04-03T07:38:33;4.90;99.90
19220;DHT22;9744;49.364;7.484;2023-04-03T07:41:01;5.20;99.90
19220;DHT22;9744;49.364;7.484;2023-04-03T07:43:30;5.30;99.90
19220;DHT22;9744;49.364;7.484;2023-04-03T07:45:57;5.60;99.90
19220;DHT22;9744;49.364;7.484;2023-04-03T07:48:25;5.50;99.90
19220;DHT22;9744;49.364;7.484;2023-04-03T07:50:52;5.70;99.90
19220;DHT22;9744;49.364;7.484;2023-04-03T07:53:46;5.60;99.90
19220;DHT22;9744;49.364;7.484;2023-04-03T07:56:14;5.90;99.90
19220;DHT22;9744;49.364;7.484;2023-04-03T07:58:42;6.20;99.90
19220;DHT22;9744;49.364;7.484;2023-04-03T08:01:09;6.50;99.90
19220;DHT22;9744;49.364;7.484;2023-04-03T08:03:38;6.90;99.90
19220;DHT22;9744;49.364;7.484;2023-04-03T08:06:07;6.80;99.90
19220;DHT22;9744;49.364;7.484;2023-04-03T08:08:34;6.90;99.90
19220;DHT22;9744;49.364;7.484;2023-04-03T08:11:04;7.10;99.90
19220;DHT22;9744;49.364;7.484;2023-04-03T08:13:32;7.30;99.90
19220;DHT22;9744;49.364;7.484;2023-04-03T08:16:09;7.50;99.90
19220;DHT22;9744;49.364;7.484;2023-04-03T08:18:37;7.50;99.90
19220;DHT22;9744;49.364;7.484;2023-04-03T08:21:09;7.60;99.90
19220;DHT22;9744;49.364;7.484;2023-04-03T08:23:37;7.80;99.90
19220;DHT22;9744;49.364;7.484;2023-04-03T08:26:11;7.90;99.90
19220;DHT22;9744;49.364;7.484;2023-04-03T08:28:39;8.10;99.90
19220;DHT22;9744;49.364;7.484;2023-04-03T08:31:09;8.80;99.90
19220;DHT22;9744;49.364;7.484;2023-04-03T08:33:37;9.00;99.90
19220;DHT22;9744;49.364;7.484;2023-04-03T08:36:06;8.90;99.90
19220;DHT22;9744;49.364;7.484;2023-04-03T08:38:34;8.80;99.90
19220;DHT22;9744;49.364;7.484;2023-04-03T08:41:07;8.40;99.90
19220;DHT22;9744;49.364;7.484;2023-04-03T08:43:46;8.60;99.90
19220;DHT22;9744;49.364;7.484;2023-04-03T08:46:23;8.90;99.90
19220;DHT22;9744;49.364;7.484;2023-04-03T08:48:51;8.80;99.90
19220;DHT22;9744;49.364;7.484;2023-04-03T08:51:20;8.90;99.90
19220;DHT22;9744;49.364;7.484;2023-04-03T08:53:55;8.90;99.90
19220;DHT22;9744;49.364;7.484;2023-04-03T08:56:24;8.90;99.90
19220;DHT22;9744;49.364;7.484;2023-04-03T08:58:56;9.00;99.90
19220;DHT22;9744;49.364;7.484;2023-04-03T09:01:28;8.70;99.90
19220;DHT22;9744;49.364;7.484;2023-04-03T09:03:57;8.90;99.90
19220;DHT22;9744;49.364;7.484;2023-04-03T09:06:26;9.10;99.90
19220;DHT22;9744;49.364;7.484;2023-04-03T09:09:02;9.40;99.90
19220;DHT22;9744;49.364;7.484;2023-04-03T09:11:39;9.60;99.90
19220;DHT22;9744;49.364;7.484;2023-04-03T09:14:16;9.70;99.90
19220;DHT22;9744;49.364;7.484;2023-04-03T09:16:54;9.80;99.90
19220;DHT22;9744;49.364;7.484;2023-04-03T09:19:28;9.80;99.90
19220;DHT22;9744;49.364;7.484;2023-04-03T09:22:07;10.00;99.90
19220;DHT22;9744;49.364;7.484;2023-04-03T09:24:36;10.10;99.90
19220;DHT22;9744;49.364;7.484;2023-04-03T09:27:06;10.00;99.90
19220;DHT22;9744;49.364;7.484;2023-04-03T09:29:39;10.00;99.90
19220;DHT22;9744;49.364;7.484;2023-04-03T09:32:19;10.00;99.90
19220;DHT22;9744;49.364;7.484;2023-04-03T09:34:48;10.10;99.90
19220;DHT22;9744;49.364;7.484;2023-04-03T09:37:37;10.10;99.90
19220;DHT22;9744;49.364;7.484;2023-04-03T09:40:27;9.90;99.90
19220;DHT22;9744;49.364;7.484;2023-04-03T09:42:57;9.90;99.90
19220;DHT22;9744;49.364;7.484;2023-04-03T09:45:27;9.90;99.90
19220;DHT22;9744;49.364;7.484;2023-04-03T09:48:13;9.70;99.90
19220;DHT22;9744;49.364;7.484;2023-04-03T09:50:55;9.70;99.90
19220;DHT22;9744;49.364;7.484;2023-04-03T09:53:33;9.60;99.90
19220;DHT22;9744;49.364;7.484;2023-04-03T09:56:02;9.50;99.90
19220;DHT22;9744;49.364;7.484;2023-04-03T09:58:32;9.50;99.90
19220;DHT22;9744;49.364;7.484;2023-04-03T10:01:01;9.70;99.90
19220;DHT22;9744;49.364;7.484;2023-04-03T10:03:32;9.90;99.90
19220;DHT22;9744;49.364;7.484;2023-04-03T10:06:02;10.30;99.90
19220;DHT22;9744;49.364;7.484;2023-04-03T10:08:31;10.70;99.90
19220;DHT22;9744;49.364;7.484;2023-04-03T10:11:15;11.10;99.90
19220;DHT22;9744;49.364;7.484;2023-04-03T10:13:54;11.40;99.90
19220;DHT22;9744;49.364;7.484;2023-04-03T10:16:26;11.40;99.90
19220;DHT22;9744;49.364;7.484;2023-04-03T10:19:10;11.50;99.90
19220;DHT22;9744;49.364;7.484;2023-04-03T10:21:45;11.40;99.90
19220;DHT22;9744;49.364;7.484;2023-04-03T10:24:17;11.30;99.90
19220;DHT22;9744;49.364;7.484;2023-04-03T10:26:54;11.40;99.90
19220;DHT22;9744;49.364;7.484;2023-04-03T10:29:30;11.50;99.90
19220;DHT22;9744;49.364;7.484;2023-04-03T10:32:14;11.60;99.90
19220;DHT22;9744;49.364;7.484;2023-04-03T10:34:45;11.70;99.90
19220;DHT22;9744;49.364;7.484;2023-04-03T10:37:20;11.70;99.90
19220;DHT22;9744;49.364;7.484;2023-04-03T10:39:53;11.60;99.90
19220;DHT22;9744;49.364;7.484;2023-04-03T10:42:27;11.50;99.90
19220;DHT22;9744;49.364;7.484;2023-04-03T10:45:03;11.40;99.90
19220;DHT22;9744;49.364;7.484;2023-04-03T10:47:41;11.40;99.90
19220;DHT22;9744;49.364;7.484;2023-04-03T10:50:29;11.20;99.90
19220;DHT22;9744;49.364;7.484;2023-04-03T10:53:03;10.80;99.90
19220;DHT22;9744;49.364;7.484;2023-04-03T10:55:35;10.90;99.90
19220;DHT22;9744;49.364;7.484;2023-04-03T10:58:05;11.00;99.90
19220;DHT22;9744;49.364;7.484;2023-04-03T11:00:37;11.10;99.90
19220;DHT22;9744;49.364;7.484;2023-04-03T11:03:11;11.30;99.90
19220;DHT22;9744;49.364;7.484;2023-04-03T11:05:44;11.30;99.90
19220;DHT22;9744;49.364;7.484;2023-04-03T11:08:19;11.20;99.90
19220;DHT22;9744;49.364;7.484;2023-04-03T11:10:51;11.20;99.90
19220;DHT22;9744;49.364;7.484;2023-04-03T11:13:21;11.20;99.90
19220;DHT22;9744;49.364;7.484;2023-04-03T11:15:51;11.20;99.90
19220;DHT22;9744;49.364;7.484;2023-04-03T11:18:23;11.00;99.90
19220;DHT22;9744;49.364;7.484;2023-04-03T11:21:00;11.00;99.90
19220;DHT22;9744;49.364;7.484;2023-04-03T11:23:32;10.90;99.90
19220;DHT22;9744;49.364;7.484;2023-04-03T11:26:10;10.60;99.90
19220;DHT22;9744;49.364;7.484;2023-04-03T11:29:04;10.50;99.90
19220;DHT22;9744;49.364;7.484;2023-04-03T11:31:41;10.50;99.90
19220;DHT22;9744;49.364;7.484;2023-04-03T11:34:22;10.40;99.90
19220;DHT22;9744;49.364;7.484;2023-04-03T11:36:57;10.50;99.90
19220;DHT22;9744;49.364;7.484;2023-04-03T11:39:28;10.60;99.90
19220;DHT22;9744;49.364;7.484;2023-04-03T11:42:13;10.80;99.90
19220;DHT22;9744;49.364;7.484;2023-04-03T11:44:41;10.80;99.90
19220;DHT22;9744;49.364;7.484;2023-04-03T11:47:10;10.90;99.90
19220;DHT22;9744;49.364;7.484;2023-04-03T11:49:58;11.00;99.90
19220;DHT22;9744;49.364;7.484;2023-04-03T11:53:02;11.00;99.90
19220;DHT22;9744;49.364;7.484;2023-04-03T11:55:57;11.00;99.90
19220;DHT22;9744;49.364;7.484;2023-04-03T11:58:27;10.90;99.90
19220;DHT22;9744;49.364;7.484;2023-04-03T12:00:56;10.90;99.90
19220;DHT22;9744;49.364;7.484;2023-04-03T12:06:50;11.00;99.90
19220;DHT22;9744;49.364;7.484;2023-04-03T12:12:36;10.90;99.90
19220;DHT22;9744;49.364;7.484;2023-04-03T12:18:43;11.00;99.90
19220;DHT22;9744;49.364;7.484;2023-04-03T12:21:11;11.10;99.90
19220;DHT22;9744;49.364;7.484;2023-04-03T12:23:57;11.20;99.90
19220;DHT22;9744;49.364;7.484;2023-04-03T12:26:28;11.10;99.90
19220;DHT22;9744;49.364;7.484;2023-04-03T12:28:57;11.10;99.90
19220;DHT22;9744;49.364;7.484;2023-04-03T12:31:31;11.10;99.90
19220;DHT22;9744;49.364;7.484;2023-04-03T12:34:16;11.00;99.90
19220;DHT22;9744;49.364;7.484;2023-04-03T12:36:52;10.90;99.90
19220;DHT22;9744;49.364;7.484;2023-04-03T12:39:49;10.80;99.90
19220;DHT22;9744;49.364;7.484;2023-04-03T12:45:19;10.90;99.90
19220;DHT22;9744;49.364;7.484;2023-04-03T12:47:49;10.90;99.90
19220;DHT22;9744;49.364;7.484;2023-04-03T12:50:21;10.80;99.90
19220;DHT22;9744;49.364;7.484;2023-04-03T12:52:53;10.70;99.90
19220;DHT22;9744;49.364;7.484;2023-04-03T12:55:22;10.50;99.90
19220;DHT22;9744;49.364;7.484;2023-04-03T12:57:52;10.50;99.90
19220;DHT22;9744;49.364;7.484;2023-04-03T13:00:25;10.50;99.90
19220;DHT22;9744;49.364;7.484;2023-04-03T13:02:53;10.50;99.90
19220;DHT22;9744;49.364;7.484;2023-04-03T13:05:22;10.70;99.90
19220;DHT22;9744;49.364;7.484;2023-04-03T13:07:52;11.00;99.90
19220;DHT22;9744;49.364;7.484;2023-04-03T13:10:19;11.20;99.90
19220;DHT22;9744;49.364;7.484;2023-04-03T13:12:49;11.30;99.90
19220;DHT22;9744;49.364;7.484;2023-04-03T13:15:20;11.40;99.90
19220;DHT22;9744;49.364;7.484;2023-04-03T13:17:48;11.80;99.90
19220;DHT22;9744;49.364;7.484;2023-04-03T13:20:21;11.40;99.90
19220;DHT22;9744;49.364;7.484;2023-04-03T13:22:56;11.40;99.90
19220;DHT22;9744;49.364;7.484;2023-04-03T13:25:27;11.50;99.90
19220;DHT22;9744;49.364;7.484;2023-04-03T13:27:54;11.50;99.90
19220;DHT22;9744;49.364;7.484;2023-04-03T13:30:28;11.50;99.90
19220;DHT22;9744;49.364;7.484;2023-04-03T13:32:56;11.40;99.90
19220;DHT22;9744;49.364;7.484;2023-04-03T13:35:27;11.20;99.90
19220;DHT22;9744;49.364;7.484;2023-04-03T13:38:05;11.20;99.90
19220;DHT22;9744;49.364;7.484;2023-04-03T13:40:33;11.10;99.90
19220;DHT22;9744;49.364;7.484;2023-04-03T13:43:03;11.00;99.90
19220;DHT22;9744;49.364;7.484;2023-04-03T13:45:33;10.90;99.90
19220;DHT22;9744;49.364;7.484;2023-04-03T13:48:15;10.90;99.90
19220;DHT22;9744;49.364;7.484;2023-04-03T13:50:58;10.90;99.90
19220;DHT22;9744;49.364;7.484;2023-04-03T13:53:27;10.80;99.90
19220;DHT22;9744;49.364;7.484;2023-04-03T13:56:00;10.70;99.90
19220;DHT22;9744;49.364;7.484;2023-04-03T13:58:33;10.60;99.90
19220;DHT22;9744;49.364;7.484;2023-04-03T14:01:08;10.40;99.90
19220;DHT22;9744;49.364;7.484;2023-04-03T14:03:41;10.30;99.90
19220;DHT22;9744;49.364;7.484;2023-04-03T14:06:11;10.20;99.90
19220;DHT22;9744;49.364;7.484;2023-04-03T14:08:39;10.20;99.90
19220;DHT22;9744;49.364;7.484;2023-04-03T14:11:11;10.10;99.90
19220;DHT22;9744;49.364;7.484;2023-04-03T14:13:41;10.10;99.90
19220;DHT22;9744;49.364;7.484;2023-04-03T14:16:12;9.90;99.90
19220;DHT22;9744;49.364;7.484;2023-04-03T14:18:40;9.70;99.90
19220;DHT22;9744;49.364;7.484;2023-04-03T14:21:10;9.60;99.90
19220;DHT22;9744;49.364;7.484;2023-04-03T14:23:37;9.60;99.90
19220;DHT22;9744;49.364;7.484;2023-04-03T14:26:08;9.70;99.90
19220;DHT22;9744;49.364;7.484;2023-04-03T14:28:36;9.70;99.90
19220;DHT22;9744;49.364;7.484;2023-04-03T14:31:04;9.80;99.90
19220;DHT22;9744;49.364;7.484;2023-04-03T14:33:34;9.90;99.90
19220;DHT22;9744;49.364;7.484;2023-04-03T14:36:05;10.10;99.90
19220;DHT22;9744;49.364;7.484;2023-04-03T14:38:38;10.20;99.90
19220;DHT22;9744;49.364;7.484;2023-04-03T14:41:05;10.10;99.90
19220;DHT22;9744;49.364;7.484;2023-04-03T14:43:32;10.10;99.90
19220;DHT22;9744;49.364;7.484;2023-04-03T14:45:59;10.00;99.90
19220;DHT22;9744;49.364;7.484;2023-04-03T14:48:27;9.90;99.90
19220;DHT22;9744;49.364;7.484;2023-04-03T14:50:58;9.80;99.90
19220;DHT22;9744;49.364;7.484;2023-04-03T14:53:25;9.80;99.90
19220;DHT22;9744;49.364;7.484;2023-04-03T14:55:55;9.70;99.90
19220;DHT22;9744;49.364;7.484;2023-04-03T14:58:22;9.90;99.90
19220;DHT22;9744;49.364;7.484;2023-04-03T15:00:49;10.00;99.90
19220;DHT22;9744;49.364;7.484;2023-04-03T15:03:18;10.00;99.90
19220;DHT22;9744;49.364;7.484;2023-04-03T15:05:48;10.10;99.90
19220;DHT22;9744;49.364;7.484;2023-04-03T15:08:21;10.10;99.90
19220;DHT22;9744;49.364;7.484;2023-04-03T15:10:50;10.10;99.90
19220;DHT22;9744;49.364;7.484;2023-04-03T15:13:18;10.00;99.90
19220;DHT22;9744;49.364;7.484;2023-04-03T15:15:46;9.80;99.90
19220;DHT22;9744;49.364;7.484;2023-04-03T15:18:16;9.70;99.90
19220;DHT22;9744;49.364;7.484;2023-04-03T15:20:44;9.70;99.90
19220;DHT22;9744;49.364;7.484;2023-04-03T15:23:13;9.80;99.90
19220;DHT22;9744;49.364;7.484;2023-04-03T15:25:43;9.80;99.90
19220;DHT22;9744;49.364;7.484;2023-04-03T15:28:18;9.70;99.90
19220;DHT22;9744;49.364;7.484;2023-04-03T15:30:45;9.70;99.90
19220;DHT22;9744;49.364;7.484;2023-04-03T15:33:13;9.70;99.90
19220;DHT22;9744;49.364;7.484;2023-04-03T15:35:41;9.80;99.90
19220;DHT22;9744;49.364;7.484;2023-04-03T15:38:08;10.00;99.90
19220;DHT22;9744;49.364;7.484;2023-04-03T15:40:36;10.10;99.90
19220;DHT22;9744;49.364;7.484;2023-04-03T15:43:05;10.20;99.90
19220;DHT22;9744;49.364;7.484;2023-04-03T15:45:34;10.30;99.90
19220;DHT22;9744;49.364;7.484;2023-04-03T15:48:02;10.40;99.90
19220;DHT22;9744;49.364;7.484;2023-04-03T15:50:30;10.40;99.90
19220;DHT22;9744;49.364;7.484;2023-04-03T15:52:58;10.40;99.90
19220;DHT22;9744;49.364;7.484;2023-04-03T15:55:29;10.20;99.90
19220;DHT22;9744;49.364;7.484;2023-04-03T15:58:09;10.20;99.90
19220;DHT22;9744;49.364;7.484;2023-04-03T16:00:37;10.20;99.90
19220;DHT22;9744;49.364;7.484;2023-04-03T16:03:08;10.30;99.90
19220;DHT22;9744;49.364;7.484;2023-04-03T16:05:37;10.40;99.90
19220;DHT22;9744;49.364;7.484;2023-04-03T16:08:05;10.50;99.90
19220;DHT22;9744;49.364;7.484;2023-04-03T16:10:33;10.60;99.90
19220;DHT22;9744;49.364;7.484;2023-04-03T16:13:01;10.80;99.90
19220;DHT22;9744;49.364;7.484;2023-04-03T16:15:30;10.90;99.90
19220;DHT22;9744;49.364;7.484;2023-04-03T16:17:58;11.20;99.90
19220;DHT22;9744;49.364;7.484;2023-04-03T16:20:25;11.30;99.90
19220;DHT22;9744;49.364;7.484;2023-04-03T16:22:53;11.30;99.90
19220;DHT22;9744;49.364;7.484;2023-04-03T16:25:22;11.00;99.90
19220;DHT22;9744;49.364;7.484;2023-04-03T16:27:50;10.60;99.90
19220;DHT22;9744;49.364;7.484;2023-04-03T16:30:23;10.20;99.90
19220;DHT22;9744;49.364;7.484;2023-04-03T16:32:51;9.90;99.90
19220;DHT22;9744;49.364;7.484;2023-04-03T16:35:19;10.10;99.90
19220;DHT22;9744;49.364;7.484;2023-04-03T16:37:46;10.30;99.90
19220;DHT22;9744;49.364;7.484;2023-04-03T16:40:38;10.40;99.90
19220;DHT22;9744;49.364;7.484;2023-04-03T16:43:05;10.40;99.90
19220;DHT22;9744;49.364;7.484;2023-04-03T16:45:32;10.40;99.90